sensor_id;sensor_type;location;lat;lon;timestamp;P1;durP1;ratioP1;P2;durP2;ratioP2
4812;SDS011;2420;51.202;8.698;2023-09-19T00:00:30;3.38;;;1.80;;
4812;SDS011;2420;51.202;8.698;2023-09-19T00:02:56;2.95;;;2.15;;
4812;SDS011;2420;51.202;8.698;2023-09-19T00:05:24;2.85;;;2.38;;
4812;SDS011;2420;51.202;8.698;2023-09-19T00:07:53;3.17;;;1.95;;
4812;SDS011;2420;51.202;8.698;2023-09-19T00:10:20;3.03;;;1.98;;
4812;SDS011;2420;51.202;8.698;2023-09-19T00:12:47;4.10;;;2.25;;
4812;SDS011;2420;51.202;8.698;2023-09-19T00:15:12;3.63;;;2.10;;
4812;SDS011;2420;51.202;8.698;2023-09-19T00:17:38;3.00;;;2.15;;
4812;SDS011;2420;51.202;8.698;2023-09-19T00:20:06;3.10;;;2.03;;
4812;SDS011;2420;51.202;8.698;2023-09-19T00:22:33;3.00;;;1.90;;
4812;SDS011;2420;51.202;8.698;2023-09-19T00:24:59;2.40;;;2.20;;
4812;SDS011;2420;51.202;8.698;2023-09-19T00:27:25;6.30;;;2.40;;
4812;SDS011;2420;51.202;8.698;2023-09-19T00:29:51;3.53;;;2.20;;
4812;SDS011;2420;51.202;8.698;2023-09-19T00:32:17;3.10;;;2.10;;
4812;SDS011;2420;51.202;8.698;2023-09-19T00:34:43;3.80;;;2.72;;
4812;SDS011;2420;51.202;8.698;2023-09-19T00:37:09;3.08;;;2.45;;
4812;SDS011;2420;51.202;8.698;2023-09-19T00:39:36;3.58;;;2.50;;
4812;SDS011;2420;51.202;8.698;2023-09-19T00:42:02;4.53;;;2.60;;
4812;SDS011;2420;51.202;8.698;2023-09-19T00:44:30;3.15;;;2.40;;
4812;SDS011;2420;51.202;8.698;2023-09-19T00:46:55;3.35;;;2.90;;
4812;SDS011;2420;51.202;8.698;2023-09-19T00:49:21;3.20;;;2.90;;
4812;SDS011;2420;51.202;8.698;2023-09-19T00:51:48;5.22;;;3.08;;
4812;SDS011;2420;51.202;8.698;2023-09-19T00:54:13;3.70;;;2.85;;
4812;SDS011;2420;51.202;8.698;2023-09-19T00:56:43;3.85;;;3.20;;
4812;SDS011;2420;51.202;8.698;2023-09-19T00:59:10;5.00;;;3.15;;
4812;SDS011;2420;51.202;8.698;2023-09-19T01:01:36;4.25;;;2.88;;
4812;SDS011;2420;51.202;8.698;2023-09-19T01:04:04;3.20;;;2.90;;
4812;SDS011;2420;51.202;8.698;2023-09-19T01:06:30;4.20;;;3.03;;
4812;SDS011;2420;51.202;8.698;2023-09-19T01:08:56;4.18;;;2.97;;
4812;SDS011;2420;51.202;8.698;2023-09-19T01:11:31;3.80;;;3.17;;
4812;SDS011;2420;51.202;8.698;2023-09-19T01:16:43;5.10;;;3.30;;
4812;SDS011;2420;51.202;8.698;2023-09-19T01:22:09;4.40;;;3.30;;
4812;SDS011;2420;51.202;8.698;2023-09-19T01:30:51;6.00;;;3.17;;
4812;SDS011;2420;51.202;8.698;2023-09-19T01:33:24;3.25;;;2.90;;
4812;SDS011;2420;51.202;8.698;2023-09-19T01:35:50;6.25;;;3.20;;
4812;SDS011;2420;51.202;8.698;2023-09-19T01:38:17;8.02;;;3.40;;
4812;SDS011;2420;51.202;8.698;2023-09-19T01:40:48;5.40;;;3.13;;
4812;SDS011;2420;51.202;8.698;2023-09-19T01:43:27;4.72;;;3.10;;
4812;SDS011;2420;51.202;8.698;2023-09-19T01:46:04;3.42;;;3.13;;
4812;SDS011;2420;51.202;8.698;2023-09-19T01:48:46;5.38;;;3.80;;
4812;SDS011;2420;51.202;8.698;2023-09-19T01:51:18;4.72;;;3.60;;
4812;SDS011;2420;51.202;8.698;2023-09-19T01:54:03;6.32;;;3.80;;
4812;SDS011;2420;51.202;8.698;2023-09-19T01:59:23;6.30;;;3.47;;
4812;SDS011;2420;51.202;8.698;2023-09-19T02:01:52;4.95;;;3.60;;
4812;SDS011;2420;51.202;8.698;2023-09-19T02:04:19;5.22;;;3.20;;
4812;SDS011;2420;51.202;8.698;2023-09-19T02:06:45;8.82;;;3.67;;
4812;SDS011;2420;51.202;8.698;2023-09-19T02:09:12;3.80;;;3.40;;
4812;SDS011;2420;51.202;8.698;2023-09-19T02:11:39;4.40;;;3.50;;
4812;SDS011;2420;51.202;8.698;2023-09-19T02:14:05;6.50;;;3.95;;
4812;SDS011;2420;51.202;8.698;2023-09-19T02:16:33;6.40;;;3.40;;
4812;SDS011;2420;51.202;8.698;2023-09-19T02:18:59;4.90;;;3.50;;
4812;SDS011;2420;51.202;8.698;2023-09-19T02:21:25;5.57;;;3.53;;
4812;SDS011;2420;51.202;8.698;2023-09-19T02:23:54;7.47;;;3.22;;
4812;SDS011;2420;51.202;8.698;2023-09-19T02:26:20;7.32;;;3.67;;
4812;SDS011;2420;51.202;8.698;2023-09-19T02:28:46;5.75;;;3.60;;
4812;SDS011;2420;51.202;8.698;2023-09-19T02:31:12;5.65;;;3.45;;
4812;SDS011;2420;51.202;8.698;2023-09-19T02:33:38;5.95;;;3.78;;
4812;SDS011;2420;51.202;8.698;2023-09-19T02:36:03;5.90;;;3.72;;
4812;SDS011;2420;51.202;8.698;2023-09-19T02:38:29;4.70;;;3.60;;
4812;SDS011;2420;51.202;8.698;2023-09-19T02:40:55;6.18;;;3.28;;
4812;SDS011;2420;51.202;8.698;2023-09-19T02:43:21;7.35;;;3.55;;
4812;SDS011;2420;51.202;8.698;2023-09-19T02:45:48;4.25;;;3.40;;
4812;SDS011;2420;51.202;8.698;2023-09-19T02:48:22;4.38;;;3.33;;
4812;SDS011;2420;51.202;8.698;2023-09-19T02:50:50;8.38;;;4.10;;
4812;SDS011;2420;51.202;8.698;2023-09-19T02:53:16;8.70;;;4.53;;
4812;SDS011;2420;51.202;8.698;2023-09-19T02:55:41;6.78;;;3.95;;
4812;SDS011;2420;51.202;8.698;2023-09-19T02:58:07;6.03;;;3.80;;
4812;SDS011;2420;51.202;8.698;2023-09-19T03:00:34;4.93;;;3.45;;
4812;SDS011;2420;51.202;8.698;2023-09-19T03:03:00;7.43;;;3.70;;
4812;SDS011;2420;51.202;8.698;2023-09-19T03:05:27;7.90;;;3.60;;
4812;SDS011;2420;51.202;8.698;2023-09-19T03:07:55;8.68;;;3.95;;
4812;SDS011;2420;51.202;8.698;2023-09-19T03:10:22;6.13;;;3.88;;
4812;SDS011;2420;51.202;8.698;2023-09-19T03:12:49;6.35;;;3.50;;
4812;SDS011;2420;51.202;8.698;2023-09-19T03:15:15;6.85;;;3.85;;
4812;SDS011;2420;51.202;8.698;2023-09-19T03:17:43;6.47;;;4.15;;
4812;SDS011;2420;51.202;8.698;2023-09-19T03:20:12;5.93;;;3.80;;
4812;SDS011;2420;51.202;8.698;2023-09-19T03:22:39;5.53;;;3.70;;
4812;SDS011;2420;51.202;8.698;2023-09-19T03:25:05;5.90;;;3.92;;
4812;SDS011;2420;51.202;8.698;2023-09-19T03:27:33;8.70;;;3.70;;
4812;SDS011;2420;51.202;8.698;2023-09-19T03:29:59;6.47;;;3.70;;
4812;SDS011;2420;51.202;8.698;2023-09-19T03:32:25;5.50;;;3.42;;
4812;SDS011;2420;51.202;8.698;2023-09-19T03:34:51;6.00;;;3.78;;
4812;SDS011;2420;51.202;8.698;2023-09-19T03:37:17;9.32;;;4.47;;
4812;SDS011;2420;51.202;8.698;2023-09-19T03:39:43;7.47;;;3.92;;
4812;SDS011;2420;51.202;8.698;2023-09-19T03:42:08;8.73;;;4.18;;
4812;SDS011;2420;51.202;8.698;2023-09-19T03:44:34;7.70;;;3.63;;
4812;SDS011;2420;51.202;8.698;2023-09-19T03:47:00;7.63;;;4.28;;
4812;SDS011;2420;51.202;8.698;2023-09-19T03:49:25;5.25;;;4.00;;
4812;SDS011;2420;51.202;8.698;2023-09-19T03:51:51;8.15;;;3.80;;
4812;SDS011;2420;51.202;8.698;2023-09-19T03:54:17;8.52;;;4.25;;
4812;SDS011;2420;51.202;8.698;2023-09-19T03:56:44;7.93;;;3.95;;
4812;SDS011;2420;51.202;8.698;2023-09-19T03:59:10;7.57;;;4.00;;
4812;SDS011;2420;51.202;8.698;2023-09-19T04:01:37;8.25;;;4.07;;
4812;SDS011;2420;51.202;8.698;2023-09-19T04:04:03;5.05;;;3.75;;
4812;SDS011;2420;51.202;8.698;2023-09-19T04:06:39;5.32;;;3.78;;
4812;SDS011;2420;51.202;8.698;2023-09-19T04:09:04;4.75;;;3.63;;
4812;SDS011;2420;51.202;8.698;2023-09-19T04:11:32;5.97;;;3.30;;
4812;SDS011;2420;51.202;8.698;2023-09-19T04:13:58;7.15;;;3.28;;
4812;SDS011;2420;51.202;8.698;2023-09-19T04:16:25;10.43;;;3.17;;
4812;SDS011;2420;51.202;8.698;2023-09-19T04:18:51;7.50;;;3.30;;
4812;SDS011;2420;51.202;8.698;2023-09-19T04:21:16;5.30;;;3.03;;
4812;SDS011;2420;51.202;8.698;2023-09-19T04:23:42;6.35;;;3.22;;
4812;SDS011;2420;51.202;8.698;2023-09-19T04:26:08;7.53;;;3.20;;
4812;SDS011;2420;51.202;8.698;2023-09-19T04:28:33;4.47;;;2.90;;
4812;SDS011;2420;51.202;8.698;2023-09-19T04:30:59;5.53;;;3.30;;
4812;SDS011;2420;51.202;8.698;2023-09-19T04:33:25;6.75;;;2.80;;
4812;SDS011;2420;51.202;8.698;2023-09-19T04:35:54;5.80;;;3.20;;
4812;SDS011;2420;51.202;8.698;2023-09-19T04:38:20;7.40;;;3.20;;
4812;SDS011;2420;51.202;8.698;2023-09-19T04:40:46;6.13;;;3.10;;
4812;SDS011;2420;51.202;8.698;2023-09-19T04:43:12;6.40;;;3.05;;
4812;SDS011;2420;51.202;8.698;2023-09-19T04:45:38;7.45;;;3.40;;
4812;SDS011;2420;51.202;8.698;2023-09-19T04:48:05;6.50;;;3.08;;
4812;SDS011;2420;51.202;8.698;2023-09-19T04:50:36;8.07;;;3.47;;
4812;SDS011;2420;51.202;8.698;2023-09-19T04:53:03;5.30;;;2.90;;
4812;SDS011;2420;51.202;8.698;2023-09-19T04:55:29;7.55;;;3.28;;
4812;SDS011;2420;51.202;8.698;2023-09-19T04:57:55;7.65;;;3.33;;
4812;SDS011;2420;51.202;8.698;2023-09-19T05:00:21;8.85;;;3.40;;
4812;SDS011;2420;51.202;8.698;2023-09-19T05:02:54;9.45;;;3.13;;
4812;SDS011;2420;51.202;8.698;2023-09-19T05:05:23;7.32;;;3.17;;
4812;SDS011;2420;51.202;8.698;2023-09-19T05:07:50;7.85;;;3.20;;
4812;SDS011;2420;51.202;8.698;2023-09-19T05:10:16;5.38;;;3.10;;
4812;SDS011;2420;51.202;8.698;2023-09-19T05:12:43;5.75;;;2.80;;
4812;SDS011;2420;51.202;8.698;2023-09-19T05:15:12;5.13;;;3.17;;
4812;SDS011;2420;51.202;8.698;2023-09-19T05:17:39;4.25;;;2.85;;
4812;SDS011;2420;51.202;8.698;2023-09-19T05:20:05;7.68;;;3.25;;
4812;SDS011;2420;51.202;8.698;2023-09-19T05:22:49;6.25;;;2.83;;
4812;SDS011;2420;51.202;8.698;2023-09-19T05:25:16;5.63;;;3.45;;
4812;SDS011;2420;51.202;8.698;2023-09-19T05:27:43;9.00;;;3.72;;
4812;SDS011;2420;51.202;8.698;2023-09-19T05:30:09;7.03;;;2.88;;
4812;SDS011;2420;51.202;8.698;2023-09-19T05:32:35;5.60;;;2.70;;
4812;SDS011;2420;51.202;8.698;2023-09-19T05:35:01;5.93;;;3.00;;
4812;SDS011;2420;51.202;8.698;2023-09-19T05:37:27;5.85;;;3.20;;
4812;SDS011;2420;51.202;8.698;2023-09-19T05:39:54;7.35;;;3.20;;
4812;SDS011;2420;51.202;8.698;2023-09-19T05:42:20;6.72;;;3.42;;
4812;SDS011;2420;51.202;8.698;2023-09-19T05:44:45;6.72;;;3.20;;
4812;SDS011;2420;51.202;8.698;2023-09-19T05:47:11;7.03;;;3.28;;
4812;SDS011;2420;51.202;8.698;2023-09-19T05:49:38;6.85;;;3.08;;
4812;SDS011;2420;51.202;8.698;2023-09-19T05:52:04;7.10;;;3.38;;
4812;SDS011;2420;51.202;8.698;2023-09-19T05:54:31;6.72;;;3.22;;
4812;SDS011;2420;51.202;8.698;2023-09-19T05:56:58;6.45;;;3.33;;
4812;SDS011;2420;51.202;8.698;2023-09-19T05:59:23;6.05;;;3.33;;
4812;SDS011;2420;51.202;8.698;2023-09-19T06:01:49;8.80;;;3.67;;
4812;SDS011;2420;51.202;8.698;2023-09-19T06:04:14;4.88;;;3.50;;
4812;SDS011;2420;51.202;8.698;2023-09-19T06:06:40;8.15;;;3.35;;
4812;SDS011;2420;51.202;8.698;2023-09-19T06:09:06;7.47;;;3.13;;
4812;SDS011;2420;51.202;8.698;2023-09-19T06:11:35;5.32;;;3.33;;
4812;SDS011;2420;51.202;8.698;2023-09-19T06:14:01;6.07;;;3.53;;
4812;SDS011;2420;51.202;8.698;2023-09-19T06:16:28;5.25;;;2.78;;
4812;SDS011;2420;51.202;8.698;2023-09-19T06:18:54;10.07;;;3.40;;
4812;SDS011;2420;51.202;8.698;2023-09-19T06:21:21;6.15;;;3.25;;
4812;SDS011;2420;51.202;8.698;2023-09-19T06:23:47;6.57;;;3.20;;
4812;SDS011;2420;51.202;8.698;2023-09-19T06:26:13;7.82;;;3.80;;
4812;SDS011;2420;51.202;8.698;2023-09-19T06:28:39;6.82;;;2.92;;
4812;SDS011;2420;51.202;8.698;2023-09-19T06:31:05;5.70;;;3.10;;
4812;SDS011;2420;51.202;8.698;2023-09-19T06:33:34;7.30;;;3.15;;
4812;SDS011;2420;51.202;8.698;2023-09-19T06:36:03;5.57;;;3.10;;
4812;SDS011;2420;51.202;8.698;2023-09-19T06:38:29;6.18;;;3.13;;
4812;SDS011;2420;51.202;8.698;2023-09-19T06:40:56;8.13;;;2.72;;
4812;SDS011;2420;51.202;8.698;2023-09-19T06:43:23;5.10;;;2.78;;
4812;SDS011;2420;51.202;8.698;2023-09-19T06:45:49;9.25;;;2.80;;
4812;SDS011;2420;51.202;8.698;2023-09-19T06:48:16;5.40;;;2.38;;
4812;SDS011;2420;51.202;8.698;2023-09-19T06:50:43;6.30;;;2.47;;
4812;SDS011;2420;51.202;8.698;2023-09-19T06:53:09;6.50;;;2.47;;
4812;SDS011;2420;51.202;8.698;2023-09-19T06:55:35;4.82;;;2.15;;
4812;SDS011;2420;51.202;8.698;2023-09-19T06:58:01;5.38;;;2.15;;
4812;SDS011;2420;51.202;8.698;2023-09-19T07:00:27;7.72;;;2.22;;
4812;SDS011;2420;51.202;8.698;2023-09-19T07:03:00;5.57;;;2.45;;
4812;SDS011;2420;51.202;8.698;2023-09-19T07:05:35;9.45;;;2.83;;
4812;SDS011;2420;51.202;8.698;2023-09-19T07:08:02;8.52;;;2.40;;
4812;SDS011;2420;51.202;8.698;2023-09-19T07:10:28;5.50;;;2.53;;
4812;SDS011;2420;51.202;8.698;2023-09-19T07:13:13;5.70;;;2.45;;
4812;SDS011;2420;51.202;8.698;2023-09-19T07:15:41;6.38;;;2.65;;
4812;SDS011;2420;51.202;8.698;2023-09-19T07:18:12;7.43;;;2.53;;
4812;SDS011;2420;51.202;8.698;2023-09-19T07:20:39;7.68;;;2.00;;
4812;SDS011;2420;51.202;8.698;2023-09-19T07:23:10;7.35;;;2.20;;
4812;SDS011;2420;51.202;8.698;2023-09-19T07:25:38;8.60;;;2.50;;
4812;SDS011;2420;51.202;8.698;2023-09-19T07:28:04;6.20;;;1.77;;
4812;SDS011;2420;51.202;8.698;2023-09-19T07:30:30;7.20;;;2.60;;
4812;SDS011;2420;51.202;8.698;2023-09-19T07:32:56;6.90;;;2.47;;
4812;SDS011;2420;51.202;8.698;2023-09-19T07:35:21;6.15;;;2.05;;
4812;SDS011;2420;51.202;8.698;2023-09-19T07:37:47;4.63;;;2.20;;
4812;SDS011;2420;51.202;8.698;2023-09-19T07:40:21;8.10;;;2.40;;
4812;SDS011;2420;51.202;8.698;2023-09-19T07:42:48;6.05;;;2.10;;
4812;SDS011;2420;51.202;8.698;2023-09-19T07:45:15;5.75;;;2.15;;
4812;SDS011;2420;51.202;8.698;2023-09-19T07:47:45;5.93;;;2.00;;
4812;SDS011;2420;51.202;8.698;2023-09-19T07:50:15;7.75;;;2.15;;
4812;SDS011;2420;51.202;8.698;2023-09-19T07:52:41;8.20;;;2.00;;
4812;SDS011;2420;51.202;8.698;2023-09-19T07:55:08;5.35;;;2.20;;
4812;SDS011;2420;51.202;8.698;2023-09-19T07:57:34;7.88;;;2.13;;
4812;SDS011;2420;51.202;8.698;2023-09-19T08:00:00;7.43;;;2.10;;
4812;SDS011;2420;51.202;8.698;2023-09-19T08:02:26;5.63;;;2.22;;
4812;SDS011;2420;51.202;8.698;2023-09-19T08:04:53;6.88;;;2.17;;
4812;SDS011;2420;51.202;8.698;2023-09-19T08:07:18;7.50;;;2.20;;
4812;SDS011;2420;51.202;8.698;2023-09-19T08:09:44;6.00;;;2.08;;
4812;SDS011;2420;51.202;8.698;2023-09-19T08:12:11;6.15;;;2.10;;
4812;SDS011;2420;51.202;8.698;2023-09-19T08:14:37;5.75;;;2.28;;
4812;SDS011;2420;51.202;8.698;2023-09-19T08:17:03;5.45;;;2.22;;
4812;SDS011;2420;51.202;8.698;2023-09-19T08:19:30;6.90;;;2.50;;
4812;SDS011;2420;51.202;8.698;2023-09-19T08:21:59;8.10;;;1.92;;
4812;SDS011;2420;51.202;8.698;2023-09-19T08:24:26;7.18;;;2.50;;
4812;SDS011;2420;51.202;8.698;2023-09-19T08:26:55;6.13;;;2.22;;
4812;SDS011;2420;51.202;8.698;2023-09-19T08:29:22;6.70;;;2.40;;
4812;SDS011;2420;51.202;8.698;2023-09-19T08:31:55;7.20;;;2.22;;
4812;SDS011;2420;51.202;8.698;2023-09-19T08:34:25;6.75;;;2.45;;
4812;SDS011;2420;51.202;8.698;2023-09-19T08:36:51;8.38;;;2.22;;
4812;SDS011;2420;51.202;8.698;2023-09-19T08:39:21;6.28;;;2.30;;
4812;SDS011;2420;51.202;8.698;2023-09-19T08:41:57;6.55;;;2.58;;
4812;SDS011;2420;51.202;8.698;2023-09-19T08:44:24;7.68;;;2.00;;
4812;SDS011;2420;51.202;8.698;2023-09-19T08:46:50;6.63;;;2.05;;
4812;SDS011;2420;51.202;8.698;2023-09-19T08:49:24;8.18;;;2.22;;
4812;SDS011;2420;51.202;8.698;2023-09-19T08:52:04;10.10;;;2.92;;
4812;SDS011;2420;51.202;8.698;2023-09-19T08:54:44;6.97;;;2.13;;
4812;SDS011;2420;51.202;8.698;2023-09-19T08:57:12;6.28;;;2.35;;
4812;SDS011;2420;51.202;8.698;2023-09-19T08:59:46;5.70;;;2.28;;
4812;SDS011;2420;51.202;8.698;2023-09-19T09:02:14;8.40;;;2.25;;
4812;SDS011;2420;51.202;8.698;2023-09-19T09:04:41;8.60;;;2.40;;
4812;SDS011;2420;51.202;8.698;2023-09-19T09:07:10;9.30;;;2.33;;
4812;SDS011;2420;51.202;8.698;2023-09-19T09:09:37;9.18;;;2.42;;
4812;SDS011;2420;51.202;8.698;2023-09-19T09:12:07;6.80;;;2.38;;
4812;SDS011;2420;51.202;8.698;2023-09-19T09:14:45;8.98;;;2.42;;
4812;SDS011;2420;51.202;8.698;2023-09-19T09:17:15;8.55;;;2.45;;
4812;SDS011;2420;51.202;8.698;2023-09-19T09:19:42;6.18;;;2.30;;
4812;SDS011;2420;51.202;8.698;2023-09-19T09:22:08;7.15;;;2.08;;
4812;SDS011;2420;51.202;8.698;2023-09-19T09:24:35;8.52;;;2.00;;
4812;SDS011;2420;51.202;8.698;2023-09-19T09:27:04;7.68;;;2.58;;
4812;SDS011;2420;51.202;8.698;2023-09-19T09:29:47;6.95;;;2.50;;
4812;SDS011;2420;51.202;8.698;2023-09-19T09:34:53;4.38;;;1.95;;
4812;SDS011;2420;51.202;8.698;2023-09-19T09:37:19;7.53;;;2.67;;
4812;SDS011;2420;51.202;8.698;2023-09-19T09:39:53;8.18;;;2.20;;
4812;SDS011;2420;51.202;8.698;2023-09-19T09:42:33;5.25;;;2.17;;
4812;SDS011;2420;51.202;8.698;2023-09-19T09:48:02;5.85;;;2.05;;
4812;SDS011;2420;51.202;8.698;2023-09-19T09:50:32;6.20;;;2.53;;
4812;SDS011;2420;51.202;8.698;2023-09-19T09:53:26;6.03;;;2.80;;
4812;SDS011;2420;51.202;8.698;2023-09-19T09:56:07;4.35;;;2.28;;
4812;SDS011;2420;51.202;8.698;2023-09-19T09:58:51;5.63;;;2.38;;
4812;SDS011;2420;51.202;8.698;2023-09-19T10:01:23;6.60;;;2.75;;
4812;SDS011;2420;51.202;8.698;2023-09-19T10:03:52;6.88;;;2.40;;
4812;SDS011;2420;51.202;8.698;2023-09-19T10:06:22;8.30;;;2.20;;
4812;SDS011;2420;51.202;8.698;2023-09-19T10:11:35;8.50;;;2.50;;
4812;SDS011;2420;51.202;8.698;2023-09-19T10:14:05;7.10;;;2.70;;
4812;SDS011;2420;51.202;8.698;2023-09-19T10:16:34;7.43;;;2.40;;
4812;SDS011;2420;51.202;8.698;2023-09-19T10:19:04;7.32;;;2.08;;
4812;SDS011;2420;51.202;8.698;2023-09-19T10:21:35;10.65;;;2.63;;
4812;SDS011;2420;51.202;8.698;2023-09-19T10:24:04;6.38;;;2.00;;
4812;SDS011;2420;51.202;8.698;2023-09-19T10:26:34;5.28;;;2.13;;
4812;SDS011;2420;51.202;8.698;2023-09-19T10:29:01;7.32;;;2.47;;
4812;SDS011;2420;51.202;8.698;2023-09-19T10:31:28;6.50;;;2.35;;
4812;SDS011;2420;51.202;8.698;2023-09-19T10:33:58;5.40;;;2.30;;
4812;SDS011;2420;51.202;8.698;2023-09-19T10:36:27;5.70;;;2.10;;
4812;SDS011;2420;51.202;8.698;2023-09-19T10:38:58;5.47;;;2.15;;
4812;SDS011;2420;51.202;8.698;2023-09-19T10:41:29;5.78;;;2.00;;
4812;SDS011;2420;51.202;8.698;2023-09-19T10:43:59;5.00;;;2.10;;
4812;SDS011;2420;51.202;8.698;2023-09-19T10:46:34;8.55;;;2.45;;
4812;SDS011;2420;51.202;8.698;2023-09-19T10:49:02;6.43;;;2.20;;
4812;SDS011;2420;51.202;8.698;2023-09-19T10:51:31;5.97;;;2.40;;
4812;SDS011;2420;51.202;8.698;2023-09-19T10:54:06;7.28;;;2.42;;
4812;SDS011;2420;51.202;8.698;2023-09-19T10:56:38;6.25;;;2.20;;
4812;SDS011;2420;51.202;8.698;2023-09-19T10:59:16;4.40;;;2.40;;
4812;SDS011;2420;51.202;8.698;2023-09-19T11:01:46;6.95;;;2.60;;
4812;SDS011;2420;51.202;8.698;2023-09-19T11:07:07;5.72;;;2.33;;
4812;SDS011;2420;51.202;8.698;2023-09-19T11:09:44;4.90;;;2.13;;
4812;SDS011;2420;51.202;8.698;2023-09-19T11:14:54;7.82;;;2.80;;
4812;SDS011;2420;51.202;8.698;2023-09-19T11:30:37;5.35;;;2.13;;
4812;SDS011;2420;51.202;8.698;2023-09-19T11:33:23;5.93;;;2.33;;
4812;SDS011;2420;51.202;8.698;2023-09-19T11:38:58;4.18;;;2.13;;
4812;SDS011;2420;51.202;8.698;2023-09-19T11:43:45;5.47;;;2.05;;
4812;SDS011;2420;51.202;8.698;2023-09-19T11:46:12;7.32;;;2.10;;
4812;SDS011;2420;51.202;8.698;2023-09-19T11:48:41;7.30;;;2.13;;
4812;SDS011;2420;51.202;8.698;2023-09-19T11:51:10;5.30;;;2.25;;
4812;SDS011;2420;51.202;8.698;2023-09-19T11:53:44;4.15;;;2.33;;
4812;SDS011;2420;51.202;8.698;2023-09-19T11:56:13;6.63;;;2.13;;
4812;SDS011;2420;51.202;8.698;2023-09-19T11:58:43;6.30;;;2.20;;
4812;SDS011;2420;51.202;8.698;2023-09-19T12:01:12;4.43;;;1.80;;
4812;SDS011;2420;51.202;8.698;2023-09-19T12:03:40;5.07;;;2.10;;
4812;SDS011;2420;51.202;8.698;2023-09-19T12:06:13;4.82;;;2.28;;
4812;SDS011;2420;51.202;8.698;2023-09-19T12:08:40;3.70;;;1.92;;
4812;SDS011;2420;51.202;8.698;2023-09-19T12:11:11;4.95;;;2.00;;
4812;SDS011;2420;51.202;8.698;2023-09-19T12:13:41;4.93;;;2.08;;
4812;SDS011;2420;51.202;8.698;2023-09-19T12:16:20;5.88;;;2.00;;
4812;SDS011;2420;51.202;8.698;2023-09-19T12:18:47;4.93;;;1.95;;
4812;SDS011;2420;51.202;8.698;2023-09-19T12:21:24;3.75;;;1.88;;
4812;SDS011;2420;51.202;8.698;2023-09-19T12:26:40;5.80;;;1.85;;
4812;SDS011;2420;51.202;8.698;2023-09-19T12:29:10;3.67;;;1.70;;
4812;SDS011;2420;51.202;8.698;2023-09-19T12:34:23;5.78;;;1.75;;
4812;SDS011;2420;51.202;8.698;2023-09-19T12:39:45;6.07;;;2.08;;
4812;SDS011;2420;51.202;8.698;2023-09-19T12:42:14;5.22;;;2.20;;
4812;SDS011;2420;51.202;8.698;2023-09-19T12:44:45;7.75;;;2.15;;
4812;SDS011;2420;51.202;8.698;2023-09-19T12:47:13;5.65;;;2.03;;
4812;SDS011;2420;51.202;8.698;2023-09-19T12:52:56;6.18;;;2.15;;
4812;SDS011;2420;51.202;8.698;2023-09-19T12:55:25;5.00;;;2.00;;
4812;SDS011;2420;51.202;8.698;2023-09-19T13:00:41;6.07;;;2.05;;
4812;SDS011;2420;51.202;8.698;2023-09-19T13:08:35;5.55;;;2.00;;
4812;SDS011;2420;51.202;8.698;2023-09-19T13:11:15;5.38;;;2.45;;
4812;SDS011;2420;51.202;8.698;2023-09-19T13:16:14;5.30;;;2.00;;
4812;SDS011;2420;51.202;8.698;2023-09-19T13:18:45;5.07;;;2.13;;
4812;SDS011;2420;51.202;8.698;2023-09-19T13:21:13;5.63;;;2.05;;
4812;SDS011;2420;51.202;8.698;2023-09-19T13:23:52;4.75;;;2.30;;
4812;SDS011;2420;51.202;8.698;2023-09-19T13:26:23;4.00;;;2.00;;
4812;SDS011;2420;51.202;8.698;2023-09-19T13:28:53;4.35;;;2.00;;
4812;SDS011;2420;51.202;8.698;2023-09-19T13:31:19;5.22;;;2.00;;
4812;SDS011;2420;51.202;8.698;2023-09-19T13:33:48;6.07;;;2.42;;
4812;SDS011;2420;51.202;8.698;2023-09-19T13:36:15;5.40;;;2.28;;
4812;SDS011;2420;51.202;8.698;2023-09-19T13:38:41;3.97;;;2.10;;
4812;SDS011;2420;51.202;8.698;2023-09-19T13:41:10;4.63;;;2.08;;
4812;SDS011;2420;51.202;8.698;2023-09-19T13:43:36;4.72;;;2.05;;
4812;SDS011;2420;51.202;8.698;2023-09-19T13:46:03;4.45;;;1.92;;
4812;SDS011;2420;51.202;8.698;2023-09-19T13:48:29;4.53;;;2.42;;
4812;SDS011;2420;51.202;8.698;2023-09-19T13:50:55;4.97;;;2.15;;
4812;SDS011;2420;51.202;8.698;2023-09-19T13:53:21;5.10;;;2.03;;
4812;SDS011;2420;51.202;8.698;2023-09-19T13:55:47;6.15;;;2.08;;
4812;SDS011;2420;51.202;8.698;2023-09-19T13:58:13;5.90;;;2.80;;
4812;SDS011;2420;51.202;8.698;2023-09-19T14:00:39;5.18;;;2.05;;
4812;SDS011;2420;51.202;8.698;2023-09-19T14:03:05;3.83;;;2.15;;
4812;SDS011;2420;51.202;8.698;2023-09-19T14:05:31;6.10;;;2.20;;
4812;SDS011;2420;51.202;8.698;2023-09-19T14:07:56;5.10;;;2.05;;
4812;SDS011;2420;51.202;8.698;2023-09-19T14:10:24;6.03;;;2.67;;
4812;SDS011;2420;51.202;8.698;2023-09-19T14:12:52;5.80;;;2.10;;
4812;SDS011;2420;51.202;8.698;2023-09-19T14:15:17;4.95;;;2.40;;
4812;SDS011;2420;51.202;8.698;2023-09-19T14:17:43;8.20;;;2.30;;
4812;SDS011;2420;51.202;8.698;2023-09-19T14:20:11;5.53;;;2.20;;
4812;SDS011;2420;51.202;8.698;2023-09-19T14:22:37;5.50;;;2.20;;
4812;SDS011;2420;51.202;8.698;2023-09-19T14:25:03;5.63;;;2.60;;
4812;SDS011;2420;51.202;8.698;2023-09-19T14:27:30;6.75;;;2.22;;
4812;SDS011;2420;51.202;8.698;2023-09-19T14:29:56;5.40;;;2.10;;
4812;SDS011;2420;51.202;8.698;2023-09-19T14:32:22;5.63;;;2.67;;
4812;SDS011;2420;51.202;8.698;2023-09-19T14:34:48;4.32;;;2.15;;
4812;SDS011;2420;51.202;8.698;2023-09-19T14:37:14;7.40;;;2.30;;
4812;SDS011;2420;51.202;8.698;2023-09-19T14:39:41;6.88;;;2.22;;
4812;SDS011;2420;51.202;8.698;2023-09-19T14:42:09;5.55;;;2.03;;
4812;SDS011;2420;51.202;8.698;2023-09-19T14:44:35;4.05;;;1.90;;
4812;SDS011;2420;51.202;8.698;2023-09-19T14:47:02;5.65;;;2.40;;
4812;SDS011;2420;51.202;8.698;2023-09-19T14:49:32;5.15;;;2.03;;
4812;SDS011;2420;51.202;8.698;2023-09-19T14:51:58;5.45;;;2.03;;
4812;SDS011;2420;51.202;8.698;2023-09-19T14:54:24;5.95;;;2.40;;
4812;SDS011;2420;51.202;8.698;2023-09-19T14:56:50;3.90;;;2.25;;
4812;SDS011;2420;51.202;8.698;2023-09-19T14:59:21;4.78;;;1.95;;
4812;SDS011;2420;51.202;8.698;2023-09-19T15:01:46;4.03;;;2.17;;
4812;SDS011;2420;51.202;8.698;2023-09-19T15:04:15;5.95;;;1.75;;
4812;SDS011;2420;51.202;8.698;2023-09-19T15:06:40;3.63;;;1.90;;
4812;SDS011;2420;51.202;8.698;2023-09-19T15:09:06;7.60;;;5.60;;
4812;SDS011;2420;51.202;8.698;2023-09-19T15:11:33;8.90;;;4.28;;
4812;SDS011;2420;51.202;8.698;2023-09-19T15:13:59;3.50;;;1.92;;
4812;SDS011;2420;51.202;8.698;2023-09-19T15:16:24;6.03;;;2.13;;
4812;SDS011;2420;51.202;8.698;2023-09-19T15:18:50;5.07;;;1.92;;
4812;SDS011;2420;51.202;8.698;2023-09-19T15:21:17;5.18;;;2.00;;
4812;SDS011;2420;51.202;8.698;2023-09-19T15:23:43;4.13;;;2.15;;
4812;SDS011;2420;51.202;8.698;2023-09-19T15:26:12;5.45;;;1.80;;
4812;SDS011;2420;51.202;8.698;2023-09-19T15:28:42;5.80;;;2.05;;
4812;SDS011;2420;51.202;8.698;2023-09-19T15:31:08;7.28;;;2.13;;
4812;SDS011;2420;51.202;8.698;2023-09-19T15:33:35;4.35;;;2.10;;
4812;SDS011;2420;51.202;8.698;2023-09-19T15:36:02;5.60;;;1.73;;
4812;SDS011;2420;51.202;8.698;2023-09-19T15:41:24;3.92;;;1.90;;
4812;SDS011;2420;51.202;8.698;2023-09-19T15:43:51;6.38;;;1.90;;
4812;SDS011;2420;51.202;8.698;2023-09-19T15:46:16;5.68;;;1.90;;
4812;SDS011;2420;51.202;8.698;2023-09-19T15:48:42;4.22;;;2.20;;
4812;SDS011;2420;51.202;8.698;2023-09-19T15:51:09;3.70;;;2.20;;
4812;SDS011;2420;51.202;8.698;2023-09-19T15:53:49;3.05;;;1.50;;
4812;SDS011;2420;51.202;8.698;2023-09-19T15:56:17;3.47;;;1.80;;
4812;SDS011;2420;51.202;8.698;2023-09-19T15:58:46;4.72;;;1.73;;
4812;SDS011;2420;51.202;8.698;2023-09-19T16:01:12;4.70;;;2.20;;
4812;SDS011;2420;51.202;8.698;2023-09-19T16:03:40;5.32;;;1.80;;
4812;SDS011;2420;51.202;8.698;2023-09-19T16:06:12;2.45;;;1.65;;
4812;SDS011;2420;51.202;8.698;2023-09-19T16:08:42;4.32;;;1.80;;
4812;SDS011;2420;51.202;8.698;2023-09-19T16:11:09;5.78;;;2.72;;
4812;SDS011;2420;51.202;8.698;2023-09-19T16:13:38;5.88;;;2.55;;
4812;SDS011;2420;51.202;8.698;2023-09-19T16:16:06;4.07;;;2.60;;
4812;SDS011;2420;51.202;8.698;2023-09-19T16:18:33;6.30;;;3.30;;
4812;SDS011;2420;51.202;8.698;2023-09-19T16:21:02;6.70;;;3.08;;
4812;SDS011;2420;51.202;8.698;2023-09-19T16:23:29;5.20;;;2.30;;
4812;SDS011;2420;51.202;8.698;2023-09-19T16:26:01;4.20;;;1.90;;
4812;SDS011;2420;51.202;8.698;2023-09-19T16:28:31;2.70;;;1.90;;
4812;SDS011;2420;51.202;8.698;2023-09-19T16:30:59;4.07;;;2.25;;
4812;SDS011;2420;51.202;8.698;2023-09-19T16:33:27;2.53;;;1.65;;